Weather observations for the past three days for
Havre, Havre City-County Airport
Metric (Imperial)
Date Time (mdt) Wind (kph) Vis. (km) Weather Sky Cond. Temperature (ºC) Relative Humidity Wind Chill (°C) Heat Index (°C) Pressure Precipitation (cm)
Air Dwpt 6 hour altimeter (cm) sea level (mb) 1 hr 3 hr 6 hr
Max. Min.
02 13:53 W 9 16.09 Overcast OVC085 18.9 1.7 32% 76.38 1018.5
02 12:53 NW 9 16.09 Overcast OVC090 18.3 2.2 34% 76.4 1018.8
02 11:53 N 7 16.09 Mostly Cloudy BKN100 17.8 1.1 18.9 5 33% 76.4 1018.8
02 10:53 N 13 G 30 16.09 Mostly Cloudy BKN120 18.3 2.2 34% 76.43 1018.7
02 09:53 Vrbl 6 16.09 Fair CLR 16.1 1.1 36% 76.43 1018.9
02 08:53 NW 6 16.09 Fair CLR 13.3 2.2 47% 76.4 1018.7
02 07:53 Calm 16.09 Partly Cloudy SCT120 9.4 1.1 56% 76.4 1018.1
02 06:53 NE 6 16.09 Fair CLR 5.6 -1.1 62% 76.35 1017.7
02 05:53 NE 7 16.09 Fair CLR 5 -1.7 8.9 2.2 62% 4 76.3 1017.0
02 04:53 E 9 16.09 Fair CLR 5 -1.7 62% 3 76.28 1016.4
02 03:53 E 13 16.09 Fair CLR 5 -1.1 65% 2 76.2 1015.6
02 02:53 SE 11 16.09 Fair CLR 3.9 -0.6 73% 1 76.12 1014.8
02 01:53 W 7 16.09 Fair CLR 2.8 -2.2 70% 1 76.07 1014.3
02 00:53 W 9 16.09 Fair CLR 4.4 -0.6 70% 2 76.07 1014.2
01 23:53 SE 6 16.09 Fair CLR 8.9 -1.7 24.4 6.1 48% 76.07 1013.6
01 22:53 Calm 16.09 Fair CLR 10.6 -2.2 41% 76.07 1013.8
01 21:53 SE 7 16.09 Fair CLR 10 -1.7 44% 9 76.05 1013.9
01 20:53 SE 6 16.09 Fair CLR 12.8 -2.8 34% 76 1013.3
01 19:53 N 11 16.09 Fair CLR 20 -3.3 21% 76 1013.0
01 18:53 NW 17 16.09 Fair CLR 23.9 -2.8 17% 24 76 1013.5
01 17:53 W 24 G 35 16.09 Fair CLR 24.4 -5 25 20 14% 24 76.02 1013.7
01 16:53 W 26 G 35 16.09 Fair CLR 25 -5.6 13% 25 76.05 1013.8
01 15:53 SW 22 G 33 16.09 Fair CLR 23.9 -5 14% 24 76.1 1014.4
01 14:53 W 20 G 33 16.09 Fair CLR 23.3 -5 15% 76.15 1015.0
01 13:53 SW 22 G 43 16.09 Fair CLR 23.3 -2.2 18% 76.17 1015.5
01 12:53 SW 15 16.09 Fair CLR 22.2 -1.7 20% 76.23 1016.0
01 11:53 W 17 16.09 Fair CLR 20.6 0 20.6 -2.8 25% 76.28 1016.7
01 10:53 SW 24 G 33 16.09 Fair CLR 18.3 -1.1 27% 76.33 1017.6
01 09:53 SW 26 16.09 Fair CLR 15 -1.7 32% 76.33 1018.0
01 08:53 SW 28 16.09 Fair CLR 12.2 -1.1 40% 76.35 1018.1
01 07:53 SW 11 16.09 Fair CLR 6.1 -1.1 60% 4 76.38 1018.5
01 06:53 SW 11 16.09 Fair CLR -0.6 -2.8 85% -4 76.35 1018.6
01 05:53 W 7 16.09 Fair CLR -2.2 -4.4 10 -2.2 85% -5 76.35 1018.6
01 04:53 SW 13 16.09 Fair CLR 1.1 -3.9 70% -2 76.33 1018.2
01 03:53 SW 11 16.09 Fair CLR 2.8 -3.9 62% 0 76.3 1017.8
01 02:53 S 6 16.09 Fair CLR 4.4 -3.3 58% 76.33 1017.9
01 01:53 S 7 16.09 Fair CLR 4.4 -3.9 55% 3 76.33 1017.8
01 00:53 E 13 16.09 Fair CLR 6.1 -3.9 49% 4 76.33 1017.9
30 23:53 E 17 16.09 Fair CLR 8.9 -3.3 20 7.2 42% 7 76.33 1017.9
30 22:53 E 9 16.09 Fair CLR 7.2 0 61% 6 76.33 1018.1
30 21:53 SE 6 16.09 Fair CLR 8.3 -2.8 46% 76.33 1018.3
30 20:53 SW 7 16.09 Fair CLR 12.8 -4.4 30% 76.3 1017.9
30 19:53 N 6 16.09 Fair CLR 17.2 -5 22% 76.3 1018.0
30 18:53 NW 15 16.09 Fair CLR 19.4 -5 19% 76.3 1018.3
30 17:53 W 13 16.09 Fair CLR 20 -5 20.6 15.6 18% 76.33 1018.8
30 16:53 NW 9 16.09 Fair CLR 19.4 -5.6 18% 76.38 1019.4
30 15:53 NW 19 G 37 16.09 Fair CLR 19.4 -5 19% 76.4 1019.7
30 14:53 Vrbl 7 G 35 16.09 Fair CLR 18.3 -5 20% 76.48 1020.4
30 13:53 NW 26 G 39 16.09 Fair CLR 17.8 -5 21% 76.53 1021.2
30 12:53 Vrbl 7 16.09 Fair CLR 16.7 -5 22% 76.58 1022.1
30 11:53 N 7 16.09 Fair CLR 15.6 -6.1 16.1 -6.1 22% 76.63 1022.7
30 10:53 W 7 16.09 Fair CLR 14.4 -4.4 27% 76.68 1023.7
30 09:53 W 11 16.09 Fair CLR 10.6 -3.3 38% 76.73 1023.8
30 08:53 W 13 16.09 Fair CLR 6.1 -3.9 49% 4 76.76 1024.3
30 07:53 W 7 16.09 Fair CLR 1.1 -3.9 70% -1 76.76 1024.4
30 06:53 SW 11 16.09 Fair CLR -3.9 -6.1 85% -8 76.73 1024.6
30 05:53 W 7 16.09 Fair CLR -5.6 -7.2 2.2 -5.6 89% -9 76.71 1024.4
30 04:53 W 15 16.09 Fair CLR -5.6 -7.2 89% -11 76.71 1024.4
30 03:53 SW 7 16.09 Fair CLR -4.4 -6.7 84% -7 76.71 1024.4
30 02:53 SW 6 16.09 Fair CLR -1.1 -5.6 72% 76.73 1024.2
30 01:53 SW 6 16.09 Fair CLR -2.2 -5.6 78% 76.71 1024.2
30 00:53 SW 13 16.09 Fair CLR -1.1 -5 75% -5 76.68 1023.9
29 23:53 Calm 16.09 Fair CLR 0.6 -5.6 16.1 0 64% 76.66 1023.6
29 22:53 S 6 16.09 Fair CLR 0 -6.1 64% 76.68 1023.7
29 21:53 W 6 16.09 A Few Clouds FEW090 6.7 -6.1 40% 76.66 1023.3
29 20:53 N 11 16.09 Fair CLR 10 -6.1 32% 9 76.61 1022.8
29 19:53 N 15 16.09 Mostly Cloudy BKN095 13.9 -5.6 26% 76.58 1022.4
29 18:53 N 24 G 33 16.09 Partly Cloudy SCT090 15 -5.6 24% 76.56 1022.4
29 17:53 N 17 G 41 16.09 Mostly Cloudy BKN095 16.1 -6.1 16.1 11.1 21% 76.56 1022.3
29 16:53 NW 26 G 44 16.09 Partly Cloudy SCT095 16.1 -7.2 20% 76.56 1022.0
29 15:53 N 17 G 33 16.09 Fair CLR 15.6 -7.2 20% 76.58 1022.3
29 14:53 NW 7 G 37 16.09 Fair CLR 15 -5.6 24% 76.61 1022.4
Date Time (mdt) Wind (kph) Vis. (km) Weather Sky Cond. Air Dwpt Max. Min. Relative Humidity Wind Chill (°C) Heat Index (°C) altimeter (cm) sea level (mb) 1 hr 3 hr 6 hr
6 hour
Temperature (ºC) Pressure Precipitation (cm)